Stations météo

réclame
Mon MeteoGroup
Chamonix, France (7469): Température de l'air & dewpoint: 09.08.2018 01:00:00 - 15.08.2018 01:00:00 (CEST)Chamonix, France (7469): Vitesse du vent & gusts: 09.08.2018 01:00:00 - 15.08.2018 01:00:00 (CEST)Chamonix, France (7469): Direction du vent: 09.08.2018 01:00:00 - 15.08.2018 01:00:00 (CEST)Chamonix, France (7469): Quantités de précipitations: 09.08.2018 01:00:00 - 15.08.2018 01:00:00 (CEST)
Date & Time tt [°C] td [°C] ff [km/h] ff [knt] fx [km/h] fx [knt] dd rr [mm]
15.08.2018 01:00:00 - - - - - - - -
15.08.2018 00:00:00 13,5 12,9 0 0 5 3 N 0,0
14.08.2018 23:00:00 14,1 13,6 0 0 4 2 N 0,0
14.08.2018 22:00:00 14,4 13,8 0 0 5 3 N 0,0
14.08.2018 21:00:00 14,9 14,1 0 0 4 2 N 0,0
14.08.2018 20:00:00 15,7 14,6 2 1 4 2 WNW -
14.08.2018 19:00:00 16,4 14,8 0 0 8 4 N 0,8
14.08.2018 18:00:00 17,4 14,3 0 0 4 2 N 0,2
14.08.2018 17:00:00 17,7 14,0 0 0 18 10 N 0,0
14.08.2018 16:00:00 19,6 13,3 8 4 18 10 WSW 0,2
14.08.2018 15:00:00 20,2 13,4 8 4 21 11 W 0,0
14.08.2018 14:00:00 19,7 12,9 5 3 13 7 WSW -
14.08.2018 13:00:00 18,3 12,7 0 0 8 4 N 0,0
14.08.2018 12:00:00 17,3 12,8 0 0 9 5 N 0,0
14.08.2018 11:00:00 16,1 14,8 0 0 8 4 N 0,0
14.08.2018 10:00:00 14,6 14,3 0 0 4 2 N 0,0
14.08.2018 09:00:00 13,8 13,6 0 0 4 2 N 0,2
14.08.2018 08:00:00 13,1 12,9 0 0 4 2 N -
14.08.2018 07:00:00 12,8 12,5 0 0 0 0 N 0,0
14.08.2018 06:00:00 12,6 12,3 0 0 4 2 N 0,2
14.08.2018 05:00:00 12,8 12,5 0 0 5 3 N 0,8
14.08.2018 04:00:00 12,9 12,6 0 0 5 3 N 2,0
14.08.2018 03:00:00 12,6 12,3 0 0 4 2 N 0,2
14.08.2018 02:00:00 12,8 12,5 0 0 2 1 N -
14.08.2018 01:00:00 12,9 12,6 0 0 4 2 N 0,0
14.08.2018 00:00:00 12,4 11,9 0 0 5 3 N 0,0
13.08.2018 23:00:00 12,6 12,0 2 1 4 2 NNE 0,0
13.08.2018 22:00:00 13,4 12,6 2 1 8 4 E 0,4
13.08.2018 21:00:00 14,8 13,8 4 2 9 5 WNW 5,0
13.08.2018 20:00:00 15,5 14,7 0 0 4 2 N -
13.08.2018 19:00:00 16,3 15,2 0 0 4 2 N 0,6
13.08.2018 18:00:00 17,5 15,1 0 0 4 2 N 0,0
13.08.2018 17:00:00 17,5 15,3 4 2 18 10 W 1,0
13.08.2018 16:00:00 19,7 13,9 4 2 18 10 SSW 0,4
13.08.2018 15:00:00 21,2 12,3 8 4 18 10 WSW 0,0
13.08.2018 14:00:00 20,4 14,3 0 0 8 4 N -
13.08.2018 13:00:00 17,8 15,6 0 0 4 2 N 0,0
13.08.2018 12:00:00 17,7 15,0 4 2 8 4 NW 0,0
13.08.2018 11:00:00 15,7 15,2 2 1 8 4 NE 1,0
13.08.2018 10:00:00 14,3 13,3 2 1 8 4 NNE 0,8
13.08.2018 09:00:00 13,8 12,9 0 0 8 4 N 0,0
13.08.2018 08:00:00 11,1 10,6 0 0 5 3 N -
13.08.2018 07:00:00 9,8 9,2 0 0 8 4 N 0,0
13.08.2018 06:00:00 9,8 9,0 0 0 5 3 N 0,0
13.08.2018 05:00:00 9,9 9,1 0 0 8 4 N 0,0
13.08.2018 04:00:00 9,8 9,0 0 0 5 3 N 0,0
13.08.2018 03:00:00 10,1 9,2 2 1 5 3 N 0,0
13.08.2018 02:00:00 10,6 9,5 2 1 8 4 NNW -
13.08.2018 01:00:00 10,7 9,3 0 0 4 2 N 0,0
13.08.2018 00:00:00 11,3 9,6 0 0 4 2 N 0,0
12.08.2018 23:00:00 12,2 10,3 0 0 4 2 N 0,0
12.08.2018 22:00:00 13,2 10,4 0 0 5 3 N 0,0
12.08.2018 21:00:00 14,8 11,4 0 0 4 2 N 0,0
12.08.2018 20:00:00 16,7 10,3 0 0 4 2 N -
12.08.2018 19:00:00 21,6 9,5 0 0 24 13 N 0,0
12.08.2018 18:00:00 28,2 5,7 8 4 21 11 SW 0,0
12.08.2018 17:00:00 28,2 6,9 5 3 26 14 SW 0,0
12.08.2018 16:00:00 27,6 11,2 5 3 22 12 SSE 0,0
12.08.2018 15:00:00 26,9 11,4 5 3 22 12 S 0,0
12.08.2018 14:00:00 26,2 11,9 8 4 24 13 S -
12.08.2018 13:00:00 24,9 11,1 4 2 18 10 SW 0,0
12.08.2018 12:00:00 23,2 11,6 5 3 15 8 SW 0,0
12.08.2018 11:00:00 16,8 8,5 0 0 5 3 N 0,0
12.08.2018 10:00:00 11,6 11,4 0 0 5 3 N 0,0
12.08.2018 09:00:00 8,1 8,0 0 0 4 2 N 0,0
12.08.2018 08:00:00 7,3 7,0 0 0 2 1 N -
12.08.2018 07:00:00 7,2 6,9 0 0 4 2 N 0,0
12.08.2018 06:00:00 7,3 7,0 0 0 4 2 N 0,0
12.08.2018 05:00:00 7,7 7,3 0 0 4 2 N 0,0
12.08.2018 04:00:00 8,1 7,7 0 0 4 2 N 0,2
12.08.2018 03:00:00 8,5 7,9 0 0 4 2 N 0,0
12.08.2018 02:00:00 9,0 8,4 0 0 5 3 N -
12.08.2018 01:00:00 9,7 8,9 2 1 5 3 NNE 0,0
12.08.2018 00:00:00 10,4 9,5 0 0 4 2 N 0,0
11.08.2018 23:00:00 11,4 10,1 0 0 2 1 N 0,0
11.08.2018 22:00:00 12,7 10,8 0 0 5 3 N 0,0
11.08.2018 21:00:00 14,7 11,1 0 0 9 5 N 0,0
11.08.2018 20:00:00 19,3 9,5 4 2 18 10 WSW -
11.08.2018 19:00:00 21,4 9,6 5 3 22 12 WSW 0,0
11.08.2018 18:00:00 24,9 10,4 8 4 26 14 WSW 0,0
11.08.2018 17:00:00 24,1 9,7 8 4 24 13 SSW 0,0
11.08.2018 16:00:00 24,9 11,1 8 4 22 12 SSW 0,0
11.08.2018 15:00:00 24,2 11,5 8 4 24 13 S 0,0
11.08.2018 14:00:00 22,6 7,6 9 5 21 11 WSW -
11.08.2018 13:00:00 21,9 11,3 5 3 18 10 SW 0,0
11.08.2018 12:00:00 20,4 9,9 2 1 13 7 S 0,0
11.08.2018 11:00:00 15,8 11,8 2 1 8 4 ESE 0,0
11.08.2018 10:00:00 12,0 11,8 2 1 8 4 ESE 0,0
11.08.2018 09:00:00 9,0 8,9 0 0 4 2 N 0,0
11.08.2018 08:00:00 8,1 7,8 0 0 2 1 N -
11.08.2018 07:00:00 8,2 7,9 0 0 4 2 N 0,0
11.08.2018 06:00:00 8,5 8,2 0 0 4 2 N 0,0
11.08.2018 05:00:00 9,0 8,7 0 0 4 2 N 0,0
11.08.2018 04:00:00 9,6 9,3 0 0 4 2 N 0,0
11.08.2018 03:00:00 9,1 8,6 0 0 5 3 N 0,0
11.08.2018 02:00:00 9,4 8,9 0 0 5 3 N -
11.08.2018 01:00:00 10,0 9,4 0 0 4 2 N 0,0
11.08.2018 00:00:00 10,6 9,8 0 0 4 2 N 0,0
10.08.2018 23:00:00 11,6 10,7 0 0 4 2 N 0,0
10.08.2018 22:00:00 12,7 11,4 0 0 8 4 N 0,0
10.08.2018 21:00:00 14,2 11,9 2 1 8 4 ENE 0,0
10.08.2018 20:00:00 18,4 11,2 2 1 16 9 SW -
10.08.2018 19:00:00 19,8 10,8 4 2 16 9 WSW 0,0
10.08.2018 18:00:00 21,1 12,0 4 2 18 10 SW 0,0
10.08.2018 17:00:00 20,3 11,8 5 3 22 12 SW 0,0
10.08.2018 16:00:00 21,6 12,7 13 7 29 16 WSW 0,0
10.08.2018 15:00:00 21,7 12,0 8 4 24 13 SW 0,0
10.08.2018 14:00:00 20,0 12,0 13 7 22 12 W -
10.08.2018 13:00:00 18,7 11,3 2 1 13 7 SW 0,0
10.08.2018 12:00:00 16,6 13,1 2 1 8 4 SE 0,0
10.08.2018 11:00:00 14,8 11,4 4 2 8 4 WSW 0,0
10.08.2018 10:00:00 14,1 11,6 2 1 9 5 W 0,0
10.08.2018 09:00:00 12,8 12,0 0 0 11 6 N 0,0
10.08.2018 08:00:00 12,5 11,4 9 5 24 13 W -
10.08.2018 07:00:00 12,7 12,2 8 4 16 9 W 0,2
10.08.2018 06:00:00 13,3 13,0 5 3 16 9 WSW 0,0
10.08.2018 05:00:00 13,5 13,2 0 0 4 2 N 0,2
10.08.2018 04:00:00 13,6 13,3 0 0 8 4 N 0,0
10.08.2018 03:00:00 13,6 13,3 0 0 4 2 N 0,0
10.08.2018 02:00:00 13,5 13,2 0 0 4 2 N -
10.08.2018 01:00:00 13,7 13,4 0 0 4 2 N 0,4
10.08.2018 00:00:00 13,7 13,2 0 0 4 2 N 2,0
09.08.2018 23:00:00 13,8 13,3 0 0 8 4 N 0,0
09.08.2018 22:00:00 13,9 13,3 0 0 8 4 N 0,0
09.08.2018 21:00:00 14,5 13,5 0 0 5 3 N 0,0
09.08.2018 20:00:00 15,8 14,8 0 0 8 4 N -
09.08.2018 19:00:00 16,0 14,7 4 2 21 11 N 0,0
09.08.2018 18:00:00 16,5 15,5 4 2 8 4 N 0,2
09.08.2018 17:00:00 15,8 14,8 0 0 8 4 N 0,6
09.08.2018 16:00:00 16,2 15,2 2 1 8 4 SSE 2,0
09.08.2018 15:00:00 16,5 15,4 4 2 8 4 N 4,0
09.08.2018 14:00:00 17,5 15,8 0 0 13 7 N -
09.08.2018 13:00:00 18,7 14,6 8 4 28 15 S 0,6
09.08.2018 12:00:00 21,3 12,2 4 2 21 11 SW 0,0
09.08.2018 11:00:00 21,2 12,9 2 1 16 9 SSE 0,0
09.08.2018 10:00:00 19,1 12,8 2 1 9 5 E 0,0
09.08.2018 09:00:00 15,1 12,2 4 2 15 8 SW 0,0
09.08.2018 08:00:00 11,7 11,4 0 0 8 4 N -
09.08.2018 07:00:00 11,0 10,7 0 0 8 4 N 0,0
09.08.2018 06:00:00 11,1 10,6 2 1 8 4 ENE 0,0
09.08.2018 05:00:00 11,2 10,7 2 1 5 3 ENE 0,2
09.08.2018 04:00:00 11,7 11,1 0 0 5 3 N 0,0
09.08.2018 03:00:00 12,4 11,6 0 0 8 4 N 0,0
09.08.2018 02:00:00 13,4 12,5 0 0 8 4 N -
09.08.2018 01:00:00 14,5 12,9 0 0 11 6 N 0,0

tt = Température de l'air
td = dewpoint
ff = Vitesse du vent
fx = gusts
dd = Direction du vent
rr = Quantités de précipitations

stations d'obs. à proximité